UKDR/KWG METAR and TAF weather

Enter ICAO airport designator
Station Type Date Time Source
UKDR METAR 2022/01/19 00:32 UTC NOAA

UKDR 190032Z 35010MPS 9999 DRSN SCT028CB M05/M07 Q1018


Station Type Date Time Source
UKDR Decoded METAR 2022/01/19 00:32 UTC NOAA

Krivyy Rih / Dnipropetrovs'k, Ukraine (UKDR) 48-03N 033-13-12E
Jan 18, 2022 - 07:32 PM EST / 2022.01.19 0032 UTC
Wind: from the N (350 degrees) at 22 MPH (19 KT):0
Visibility: greater than 7 mile(s):0
Sky conditions: partly cloudy
Weather: low drifting snow; Cumulonimbus clouds observed
Temperature: 23 F (-5 C)
Windchill: 6 F (-14 C):1
Dew Point: 19 F (-7 C)
Relative Humidity: 85%
Pressure (altimeter): 30.06 in. Hg (1018 hPa)
ob: UKDR 190032Z 35010MPS 9999 DRSN SCT028CB M05/M07 Q1018
cycle: 0

Station Type Date Time Source
UKDR TAF 2021/12/31 21:00 UTC NOAA

TAF
AMD UKDR 312125Z 3121/0118 24003MPS 0300 FZFG VV002 TX03/0112Z TNM01/3122Z
BECMG 0100/0102 0300 RA FG VV002
BECMG 0111/0113 28006MPS 3000 BR OVC007

Example: see airport list